Homestead, FL (33030)

1:04 AM EDT on August 22, 2014 (GMT -0400)
Farmland Estates | Change Station
CLOSE
Current Station
Personal Weather Station
Location: Homestead, FL
Elevation: 8 ft
Nearby Weather Stations

Elev 8 ft 25.47 °N, 80.52 °W | Updated 21 seconds ago

Clear
Clear
78.2 °F
Feels Like 81 °F
N
0.0
Wind Variable Wind from East
Gusts 0.0 mph

Today
High -- | Low -- °F
--% Chance of Precip.
Yesterday
High -- | Low -- °F
Precip. -- in
6:58 AM 7:50 PM
Waning Crescent, 10% visible
Pressure 30.11 in
Visibility 10.0 miles
Clouds Clear
Heat Index 81 °F
Dew Point 74 °F
Humidity 86%
Rainfall 0.00 in
Snow Depth Not available.
UV 0.0 out of 12
Pollen 4.60 out of 12
PM2.5 Moderate
Flu Activity Not available.
METAR KHST 220458Z AUTO 00000KT 10SM CLR 28/24 A3010 RMK AO2 LTG DSNT NE SLP196 T02760240 403320257

More Conditions Fewer Conditions

Pressure 30.11 in
Visibility 10.0 miles
Clouds Clear
Heat Index 81 °F
Dew Point 74 °F
Humidity 86%
Rainfall 0.00 in
Snow Depth Not available.
UV 0.0 out of 12
Pollen 4.60 out of 12
PM2.5 Moderate
Flu Activity Not available.
METAR KHST 220458Z AUTO 00000KT 10SM CLR 28/24 A3010 RMK AO2 LTG DSNT NE SLP196 T02760240 403320257

More Conditions Fewer Conditions

Nowcast | as of 11:42 PM EDT on August 21, 2014

Showers and thunderstorms continue to move generally from east to west around the Cape Sable area off the coast of Mainland Monroe. These showers are expected to remain around this area this morning. A few lighter showers are also observed over the Atlantic coastal waters. However, periods of showers and thunderstorms are possible this morning over the Atlantic waters, especially for Miami- Dade and Broward.

×

10-Day Weather Forecast

Almanac

Astronomy

Aug. 22, 2014 Rise Set
Actual Time 6:58 AM EDT 7:50 PM EDT
Civil Twilight 6:34 AM EDT 8:14 PM EDT
Nautical Twilight 6:06 AM EDT 8:42 PM EDT
Astronomical Twilight 5:38 AM EDT 9:10 PM EDT
Moon 4:27 AM EDT 5:52 PM EDT
Length of Visible Light 13h 39m
Length of Day
12h 52m
Tomorrow will be 1m 22s shorter.
Waning Crescent, 10% of the Moon is Illuminated
Today
Waning Crescent
Aug 25
New
Sep 2
First Quarter
Sep 8
Full
Sep 15
Last Quarter

Today's Extremes

State Highs State Lows

Community

WunderPhotos

Upload Photos

1,746,130 photos uploaded!

Nearby

Air Quality

  Air Quality AQ Index Pollutant
Yesterday Good
PM2.5
Yesterday Good
OZONE
Current Moderate
PM2.5
Thursday Good
OZONE
Thursday Good
PM2.5
Friday Good
OZONE
Friday Good
PM2.5

Snow Depth

Station Depth Elevation
No new snow has been reported.

Earthquake Activity

City Distance Mag. Time & Date
No recent earthquake activity has been reported nearby.
Minimum magnitude displayed is 2.5.

Coastal Water Temperatures

Place Temperature
Virginia Key, FL 90.0 °F

Nearby Weather Stations